Current Weather

Lansing Muni

Chicago, Illinois (KIGQ)

Report from: Monday, August 15, 2022 8:35 PM CDT
Current time: Monday, August 15, 2022 8:51 PM CDT

Nearby weather
Weather history
Weather forecast

Temperature20.1°C (68.2°F)
Dew point17.0°C (62.6°F)
Winds 5 kts (2.6 m/s, 5.8 mph) North (10°)
Visibility10 mi. (16.1 km)
Clouds Sky clear
Altimeter30.08 in.Hg (1019 mB)
Relative humidity82 %
Density altitude681 ft. (208 m)
Remarks Fully automated report
Automated weather observing station with precipitation discriminator
Flight conditions Visual Meteorological Conditions
Raw dataKIGQ 160135Z AUTO 01005KT 10SM CLR 20/17 A3008 RMK AO2 T02010170
An error has occurred. This application may no longer respond until reloaded. Reload 🗙